createdAt,value
2023-02-13T00:00:32.203Z,3.20
2023-02-13T00:03:02.646Z,3.20
2023-02-13T00:05:32.820Z,3.20
2023-02-13T00:08:05.013Z,3.20
2023-02-13T00:10:34.928Z,3.20
2023-02-13T00:13:04.545Z,3.20
2023-02-13T00:15:35.668Z,3.10
2023-02-13T00:18:04.305Z,3.10
2023-02-13T00:20:34.202Z,3.10
2023-02-13T00:23:04.196Z,3.10
2023-02-13T00:25:34.106Z,3.10
2023-02-13T00:28:03.121Z,3.10
2023-02-13T00:30:32.903Z,3.10
2023-02-13T00:33:02.643Z,3.10
2023-02-13T00:35:31.002Z,3.10
2023-02-13T00:37:59.378Z,3.10
2023-02-13T00:40:28.679Z,3.10
2023-02-13T00:43:02.875Z,3.20
2023-02-13T00:45:36.188Z,3.20
2023-02-13T00:48:11.332Z,3.20
2023-02-13T00:50:43.056Z,3.20
2023-02-13T00:53:14.544Z,3.20
2023-02-13T00:55:48.760Z,3.20
2023-02-13T00:58:22.786Z,3.20
2023-02-13T01:00:54.721Z,3.20
2023-02-13T01:03:26.517Z,3.30
2023-02-13T01:05:58.571Z,3.30
2023-02-13T01:08:32.699Z,3.20
2023-02-13T01:11:04.832Z,3.20
2023-02-13T01:13:36.586Z,3.20
2023-02-13T01:16:06.905Z,3.20
2023-02-13T01:18:38.259Z,3.20
2023-02-13T01:21:12.692Z,3.20
2023-02-13T01:23:44.540Z,3.30
2023-02-13T01:26:21.781Z,3.30
2023-02-13T01:28:57.907Z,3.30
2023-02-13T01:31:32.214Z,3.30
2023-02-13T01:34:04.809Z,3.30
2023-02-13T01:36:35.029Z,3.30
2023-02-13T01:39:07.382Z,3.30
2023-02-13T01:41:39.687Z,3.30
2023-02-13T01:44:47.771Z,3.30
2023-02-13T01:47:38.266Z,3.30
2023-02-13T01:50:11.248Z,3.30
2023-02-13T01:53:04.807Z,3.30
2023-02-13T01:55:39.950Z,3.30
2023-02-13T01:58:21.539Z,3.40
2023-02-13T02:00:53.617Z,3.40
2023-02-13T02:03:54.861Z,3.40
2023-02-13T02:06:33.037Z,3.40
2023-02-13T02:09:12.706Z,3.40
2023-02-13T02:12:14.364Z,3.40
2023-02-13T02:14:48.297Z,3.40
2023-02-13T02:17:19.430Z,3.40
2023-02-13T02:19:58.555Z,3.40
2023-02-13T02:23:12.987Z,3.50
2023-02-13T02:26:10.884Z,3.40
2023-02-13T02:29:17.360Z,3.40
2023-02-13T02:32:24.754Z,3.40
2023-02-13T02:35:04.954Z,3.40
2023-02-13T02:38:12.509Z,3.40
2023-02-13T02:41:04.544Z,3.40
2023-02-13T02:43:59.950Z,3.40
2023-02-13T02:46:44.007Z,3.40
2023-02-13T02:49:39.101Z,3.40
2023-02-13T02:52:14.242Z,3.40
2023-02-13T02:55:32.988Z,3.30
2023-02-13T02:58:38.250Z,3.40
2023-02-13T03:01:34.269Z,3.40
2023-02-13T03:04:23.262Z,3.40
2023-02-13T03:06:57.449Z,3.40
2023-02-13T03:09:57.461Z,3.40
2023-02-13T03:12:51.647Z,3.40
2023-02-13T03:15:22.151Z,3.40
2023-02-13T03:18:11.750Z,3.40
2023-02-13T03:21:02.554Z,3.40
2023-02-13T03:23:38.635Z,3.40
2023-02-13T03:26:48.152Z,3.40
2023-02-13T03:30:03.245Z,3.40
2023-02-13T03:32:52.194Z,3.40
2023-02-13T03:36:11.260Z,3.40
2023-02-13T03:38:54.692Z,3.40
2023-02-13T03:41:35.058Z,3.30
2023-02-13T03:44:15.100Z,3.40
2023-02-13T03:46:52.085Z,3.40
2023-02-13T03:49:52.412Z,3.40
2023-02-13T03:52:32.466Z,3.40
2023-02-13T03:55:30.340Z,3.30
2023-02-13T03:58:24.515Z,3.30
2023-02-13T04:01:03.098Z,3.20
2023-02-13T04:03:44.645Z,3.20
2023-02-13T04:06:32.054Z,3.20
2023-02-13T04:09:04.107Z,3.10
2023-02-13T04:11:44.476Z,3.10
2023-02-13T04:14:27.199Z,3.20
2023-02-13T04:17:08.886Z,3.20
2023-02-13T04:19:45.556Z,3.20
2023-02-13T04:22:19.152Z,3.20
2023-02-13T04:24:54.900Z,3.20
2023-02-13T04:27:31.581Z,3.20
2023-02-13T04:30:03.945Z,3.20
2023-02-13T04:32:37.558Z,3.10
2023-02-13T04:35:12.949Z,3.10
2023-02-13T04:37:45.989Z,3.10
2023-02-13T04:40:18.359Z,3.00
2023-02-13T04:42:52.733Z,3.00
2023-02-13T04:45:24.335Z,3.00
2023-02-13T04:47:58.863Z,3.00
2023-02-13T04:50:30.227Z,2.90
2023-02-13T04:53:03.905Z,2.90
2023-02-13T04:55:32.690Z,2.80
2023-02-13T04:58:04.971Z,2.80
2023-02-13T05:00:35.804Z,2.80
2023-02-13T05:03:11.555Z,2.80
2023-02-13T05:05:42.636Z,2.70
2023-02-13T05:08:11.688Z,2.70
2023-02-13T05:10:45.295Z,2.60
2023-02-13T05:13:17.080Z,2.60
2023-02-13T05:15:50.783Z,2.60
2023-02-13T05:18:26.716Z,2.60
2023-02-13T05:21:19.367Z,2.60
2023-02-13T05:23:54.806Z,2.50
2023-02-13T05:26:28.410Z,2.50
2023-02-13T05:29:22.225Z,2.40
2023-02-13T05:32:02.153Z,2.30
2023-02-13T05:34:32.770Z,2.30
2023-02-13T05:37:04.941Z,2.20
2023-02-13T05:39:37.610Z,2.10
2023-02-13T05:42:10.199Z,2.10
2023-02-13T05:44:39.893Z,2.00
2023-02-13T05:47:14.121Z,2.00
2023-02-13T05:49:46.492Z,2.00
2023-02-13T05:52:15.792Z,1.90
2023-02-13T05:54:50.305Z,1.90
2023-02-13T05:57:21.448Z,1.80
2023-02-13T05:59:54.408Z,1.80
2023-02-13T06:02:25.956Z,1.80
2023-02-13T06:04:55.137Z,1.80
2023-02-13T06:07:26.646Z,1.80
2023-02-13T06:09:57.785Z,1.80
2023-02-13T06:12:35.381Z,1.80
2023-02-13T06:15:06.222Z,1.80
2023-02-13T06:17:38.886Z,1.80
2023-02-13T06:20:12.708Z,1.80
2023-02-13T06:22:42.706Z,1.90
2023-02-13T07:26:50.430Z,2.70
2023-02-13T07:29:19.111Z,2.70
2023-02-13T07:31:49.754Z,2.80
2023-02-13T07:34:20.885Z,2.80
2023-02-13T07:36:51.240Z,2.90
2023-02-13T07:39:20.011Z,2.90
2023-02-13T07:41:51.153Z,3.00
2023-02-13T07:44:21.064Z,3.10
2023-02-13T07:46:50.090Z,3.20
2023-02-13T07:49:19.971Z,3.20
2023-02-13T07:51:50.380Z,3.30
2023-02-13T07:54:20.118Z,3.40
2023-02-13T07:56:54.334Z,3.50
2023-02-13T07:59:24.859Z,3.60
2023-02-13T08:01:55.433Z,3.70
2023-02-13T08:04:26.506Z,3.70
2023-02-13T08:06:56.708Z,3.80
2023-02-13T08:09:43.839Z,3.80
2023-02-13T08:12:12.662Z,3.90
2023-02-13T08:14:40.611Z,4.00
2023-02-13T08:17:10.547Z,4.10
2023-02-13T08:19:41.064Z,4.20
2023-02-13T08:22:10.375Z,4.30
2023-02-13T08:24:39.306Z,4.50
2023-02-13T08:27:09.264Z,4.60
2023-02-13T08:29:40.721Z,4.80
2023-02-13T08:32:12.743Z,5.00
2023-02-13T08:34:42.930Z,5.10
2023-02-13T08:39:42.230Z,5.40
2023-02-13T08:42:15.782Z,5.50
2023-02-13T08:44:48.820Z,5.50
2023-02-13T08:47:21.495Z,5.50
2023-02-13T08:49:56.944Z,5.50
2023-02-13T08:52:30.235Z,5.50
2023-02-13T08:55:07.216Z,5.50
2023-02-13T08:57:43.343Z,5.50
2023-02-13T09:00:17.499Z,5.60
2023-02-13T09:02:52.882Z,5.80
2023-02-13T09:05:24.701Z,6.00
2023-02-13T09:07:57.377Z,6.20
2023-02-13T09:10:29.824Z,6.30
2023-02-13T09:12:59.338Z,6.50
2023-02-13T09:15:29.886Z,6.50
2023-02-13T09:18:01.955Z,6.40
2023-02-13T09:20:33.920Z,6.50
2023-02-13T09:23:06.020Z,6.60
2023-02-13T09:25:40.607Z,6.60
2023-02-13T09:28:14.252Z,6.70
2023-02-13T09:30:47.850Z,6.70
2023-02-13T09:33:17.740Z,6.70
2023-02-13T09:35:49.483Z,6.70
2023-02-13T09:38:24.626Z,6.80
2023-02-13T09:41:02.652Z,6.90
2023-02-13T09:43:33.990Z,7.10
2023-02-13T09:46:33.998Z,7.40
2023-02-13T09:49:28.800Z,7.30
2023-02-13T09:51:59.322Z,7.20
2023-02-13T09:54:34.037Z,7.20
2023-02-13T09:57:21.267Z,7.10
2023-02-13T10:00:14.849Z,7.00
2023-02-13T10:02:57.968Z,6.80
2023-02-13T10:05:49.386Z,6.70
2023-02-13T10:08:35.907Z,6.70
2023-02-13T10:11:11.636Z,6.60
2023-02-13T10:13:53.541Z,6.40
2023-02-13T10:16:32.017Z,6.40
2023-02-13T10:19:21.324Z,6.30
2023-02-13T10:22:05.065Z,6.20
2023-02-13T10:24:44.806Z,6.10
2023-02-13T10:27:30.081Z,6.10
2023-02-13T10:30:14.401Z,6.10
2023-02-13T10:33:24.463Z,6.10
2023-02-13T10:36:03.683Z,6.20
2023-02-13T10:38:37.885Z,6.40
2023-02-13T10:41:22.299Z,6.70
2023-02-13T10:44:22.901Z,6.80
2023-02-13T10:47:27.862Z,6.90
2023-02-13T10:50:38.868Z,7.00
2023-02-13T10:53:24.237Z,7.10
2023-02-13T10:56:08.576Z,7.10
2023-02-13T10:59:16.280Z,7.10
2023-02-13T11:02:22.621Z,7.10
2023-02-13T11:05:03.413Z,7.20
2023-02-13T11:07:34.082Z,7.30
2023-02-13T11:10:13.998Z,7.40
2023-02-13T11:12:42.373Z,7.40
2023-02-13T11:15:28.899Z,7.50
2023-02-13T11:18:03.406Z,7.60
2023-02-13T11:20:51.378Z,7.70
2023-02-13T11:23:33.622Z,7.90
2023-02-13T11:26:12.640Z,7.80
2023-02-13T11:28:52.657Z,7.80
2023-02-13T11:31:25.971Z,7.80
2023-02-13T11:34:02.627Z,7.90
2023-02-13T11:36:34.555Z,7.90
2023-02-13T11:39:23.197Z,8.00
2023-02-13T11:41:55.575Z,8.10
2023-02-13T11:44:33.475Z,8.10
2023-02-13T11:47:09.233Z,8.10
2023-02-13T13:03:58.516Z,9.30
2023-02-13T13:06:51.457Z,9.00
2023-02-13T13:10:14.513Z,8.80
2023-02-13T13:13:08.702Z,8.60
2023-02-13T13:15:57.050Z,8.50
2023-02-13T13:18:40.606Z,8.40
2023-02-13T13:21:24.222Z,8.20
2023-02-13T13:24:11.967Z,8.10
2023-02-13T13:26:50.340Z,7.90
2023-02-13T13:29:32.661Z,7.90
2023-02-13T13:32:14.258Z,7.70
2023-02-13T13:34:47.573Z,7.60
2023-02-13T13:37:24.534Z,7.50
2023-02-13T13:40:14.115Z,7.40
2023-02-13T13:42:55.392Z,7.40
2023-02-13T13:45:40.842Z,7.30
2023-02-13T13:48:42.796Z,7.20
2023-02-13T13:51:19.206Z,7.10
2023-02-13T13:54:11.488Z,7.00
2023-02-13T13:56:54.992Z,7.00
2023-02-13T13:59:40.256Z,6.90
2023-02-13T14:02:22.489Z,6.90
2023-02-13T14:05:19.688Z,6.80
2023-02-13T14:08:05.288Z,6.70
2023-02-13T14:10:42.845Z,6.50
2023-02-13T14:13:34.038Z,6.40
2023-02-13T14:16:09.555Z,6.30
2023-02-13T14:18:51.424Z,6.30
2023-02-13T14:21:26.776Z,6.20
2023-02-13T14:24:04.112Z,6.20
2023-02-13T14:26:41.049Z,6.10
2023-02-13T14:29:34.310Z,6.00
2023-02-13T14:32:34.032Z,6.00
2023-02-13T14:35:30.662Z,5.90
2023-02-13T14:38:04.885Z,5.90
2023-02-13T14:40:53.845Z,5.80
2023-02-13T14:43:34.820Z,5.80
2023-02-13T14:46:34.303Z,5.80
2023-02-13T14:49:22.566Z,5.70
2023-02-13T14:52:04.164Z,5.70
2023-02-13T14:54:48.203Z,5.70
2023-02-13T14:57:42.996Z,5.70
2023-02-13T15:00:30.130Z,5.60
2023-02-13T15:03:28.929Z,5.60
2023-02-13T15:06:12.344Z,5.50
2023-02-13T15:08:52.405Z,5.40
2023-02-13T15:11:44.132Z,5.40
2023-02-13T15:14:40.467Z,5.20
2023-02-13T15:17:27.595Z,5.20
2023-02-13T15:20:10.407Z,5.20
2023-02-13T15:22:49.842Z,5.10
2023-02-13T15:28:12.972Z,5.10
2023-02-13T15:30:57.371Z,5.10
2023-02-13T15:33:31.292Z,5.10
2023-02-13T15:36:11.627Z,5.00
2023-02-13T15:38:47.386Z,4.90
2023-02-13T15:41:42.189Z,4.90
2023-02-13T15:44:46.205Z,4.80
2023-02-13T15:47:31.473Z,4.80
2023-02-13T15:50:05.949Z,4.80
2023-02-13T15:52:41.436Z,4.70
2023-02-13T15:55:30.108Z,4.70
2023-02-13T15:58:07.395Z,4.60
2023-02-13T16:00:43.743Z,4.60
2023-02-13T16:03:22.792Z,4.50
2023-02-13T16:05:54.646Z,4.50
2023-02-13T16:08:47.905Z,4.50
2023-02-13T16:11:44.556Z,4.40
2023-02-13T16:14:32.270Z,4.40
2023-02-13T16:17:04.880Z,4.30
2023-02-13T16:19:52.551Z,4.30
2023-02-13T16:22:53.627Z,4.30
2023-02-13T16:25:37.060Z,4.30
2023-02-13T16:28:22.530Z,4.30
2023-02-13T16:31:04.341Z,4.30
2023-02-13T16:33:39.385Z,4.20
2023-02-13T16:36:14.203Z,4.10
2023-02-13T16:38:44.116Z,4.10
2023-02-13T16:41:36.769Z,4.00
2023-02-13T16:44:09.942Z,4.00
2023-02-13T16:46:44.271Z,4.00
2023-02-13T16:49:20.335Z,4.10
2023-02-13T16:51:56.395Z,4.10
2023-02-13T16:54:48.738Z,4.10
2023-02-13T16:57:24.492Z,4.10
2023-02-13T17:00:10.997Z,4.00
2023-02-13T17:02:42.430Z,4.10
2023-02-13T17:05:10.519Z,4.10
2023-02-13T17:07:44.428Z,4.10
2023-02-13T17:10:24.166Z,4.00
2023-02-13T17:12:55.294Z,4.00
2023-02-13T17:15:34.745Z,4.00
2023-02-13T17:18:07.434Z,3.90
2023-02-13T17:20:42.434Z,3.90
2023-02-13T17:23:20.472Z,3.80
2023-02-13T17:25:54.154Z,3.80
2023-02-13T17:28:33.822Z,3.80
2023-02-13T17:31:03.799Z,3.70
2023-02-13T17:33:39.484Z,3.80
2023-02-13T17:36:12.734Z,3.70
2023-02-13T17:38:44.531Z,3.80
2023-02-13T17:41:21.517Z,3.80
2023-02-13T17:43:54.193Z,3.80
2023-02-13T17:46:24.153Z,3.70
2023-02-13T17:49:02.012Z,3.80
2023-02-13T17:51:39.301Z,3.80
2023-02-13T17:54:14.131Z,3.80
2023-02-13T17:56:46.498Z,3.80
2023-02-13T17:59:14.173Z,3.80
2023-02-13T18:01:46.962Z,3.80
2023-02-13T18:04:23.577Z,3.80
2023-02-13T18:07:02.717Z,3.80
2023-02-13T18:09:32.446Z,3.80
2023-02-13T18:12:05.917Z,3.90
2023-02-13T18:14:41.715Z,3.90
2023-02-13T18:17:14.515Z,4.00
2023-02-13T18:19:49.212Z,4.10
2023-02-13T18:22:30.187Z,4.10
2023-02-13T18:25:04.413Z,4.00
2023-02-13T18:27:44.177Z,4.10
2023-02-13T18:30:22.545Z,4.10
2023-02-13T18:33:03.026Z,4.10
2023-02-13T18:35:37.867Z,4.10
2023-02-13T18:38:12.078Z,4.00
2023-02-13T18:40:42.400Z,4.00
2023-02-13T18:43:15.560Z,4.00
2023-02-13T18:45:49.887Z,4.00
2023-02-13T18:48:24.641Z,4.00
2023-02-13T18:50:56.259Z,4.00
2023-02-13T18:53:28.462Z,4.00
2023-02-13T18:56:10.669Z,4.00
2023-02-13T18:58:42.706Z,4.00
2023-02-13T19:01:18.178Z,4.00
2023-02-13T19:03:54.238Z,4.00
2023-02-13T19:06:29.989Z,4.10
2023-02-13T19:09:01.717Z,4.10
2023-02-13T19:11:36.878Z,4.00
2023-02-13T19:14:08.950Z,4.00
2023-02-13T19:16:42.842Z,4.00
2023-02-13T19:19:13.385Z,4.00
2023-02-13T19:21:43.914Z,4.00
2023-02-13T19:24:15.987Z,4.00
2023-02-13T19:26:54.500Z,4.00
2023-02-13T19:29:25.485Z,4.10
2023-02-13T19:31:58.679Z,4.10
2023-02-13T19:34:32.402Z,4.20
2023-02-13T19:37:05.212Z,4.20
2023-02-13T19:39:35.749Z,4.20
2023-02-13T19:42:07.470Z,4.30
2023-02-13T19:44:39.572Z,4.30
2023-02-13T19:47:12.536Z,4.30
2023-02-13T19:49:47.072Z,4.20
2023-02-13T19:52:20.229Z,4.10
2023-02-13T19:54:53.979Z,4.10
2023-02-13T19:57:23.680Z,4.10
2023-02-13T19:59:52.493Z,4.00
2023-02-13T20:02:24.113Z,4.00
2023-02-13T20:04:57.013Z,4.00
2023-02-13T20:07:26.014Z,4.10
2023-02-13T20:09:54.398Z,4.20
2023-02-13T20:12:31.365Z,4.20
2023-02-13T20:15:04.653Z,4.30
2023-02-13T20:17:39.179Z,4.40
2023-02-13T20:20:09.715Z,4.50
2023-02-13T20:22:43.614Z,4.50
2023-02-13T20:25:20.293Z,4.50
2023-02-13T20:27:55.738Z,4.50
2023-02-13T20:30:26.670Z,4.60
2023-02-13T20:32:57.101Z,4.60
2023-02-13T20:35:25.700Z,4.60
2023-02-13T20:37:54.471Z,4.60
2023-02-13T20:40:25.922Z,4.60
2023-02-13T20:42:57.070Z,4.60
2023-02-13T20:45:27.291Z,4.60
2023-02-13T20:48:03.341Z,4.50
2023-02-13T20:50:35.892Z,4.50
2023-02-13T20:53:09.316Z,4.60
2023-02-13T20:55:44.149Z,4.60
2023-02-13T20:58:15.585Z,4.60
2023-02-13T21:00:47.091Z,4.60
2023-02-13T21:03:24.347Z,4.60
2023-02-13T21:06:01.011Z,4.60
2023-02-13T21:08:34.005Z,4.60
2023-02-13T21:11:11.284Z,4.70
2023-02-13T21:13:46.430Z,4.70
2023-02-13T21:16:21.619Z,4.80
2023-02-13T21:18:55.473Z,4.80
2023-02-13T21:21:29.312Z,4.90
2023-02-13T21:24:04.197Z,4.90
2023-02-13T21:26:35.052Z,4.90
2023-02-13T21:29:09.576Z,4.90
2023-02-13T21:31:49.658Z,4.90
2023-02-13T21:34:21.991Z,4.90
2023-02-13T21:36:54.065Z,4.80
2023-02-13T21:39:24.282Z,4.80
2023-02-13T21:41:57.267Z,4.80
2023-02-13T21:44:30.578Z,4.70
2023-02-13T21:47:06.808Z,4.60
2023-02-13T21:49:40.537Z,4.60
2023-02-13T21:52:14.445Z,4.60
2023-02-13T21:54:47.355Z,4.60
2023-02-13T21:57:18.886Z,4.50
2023-02-13T21:59:49.110Z,4.50
2023-02-13T22:02:21.912Z,4.40
2023-02-13T22:04:54.781Z,4.40
2023-02-13T22:07:25.921Z,4.30
2023-02-13T22:09:57.690Z,4.30
2023-02-13T22:12:36.203Z,4.30
2023-02-13T22:15:10.116Z,4.30
2023-02-13T22:17:45.242Z,4.30
2023-02-13T22:20:17.010Z,4.30
2023-02-13T22:22:45.385Z,4.20
2023-02-13T22:25:15.906Z,4.30
2023-02-13T22:27:50.462Z,4.30
2023-02-13T22:30:24.140Z,4.40
2023-02-13T22:32:55.179Z,4.30
2023-02-13T22:35:24.180Z,4.30
2023-02-13T22:37:55.014Z,4.20
2023-02-13T22:40:25.552Z,4.20
2023-02-13T22:42:57.296Z,4.20
2023-02-13T22:45:34.278Z,4.30
2023-02-13T22:48:09.102Z,4.30
2023-02-13T22:50:44.242Z,4.30
2023-02-13T22:53:14.765Z,4.30
2023-02-13T22:55:44.069Z,4.30
2023-02-13T22:58:18.590Z,4.30
2023-02-13T23:00:51.574Z,4.30
2023-02-13T23:03:23.033Z,4.20
2023-02-13T23:05:52.430Z,4.20
2023-02-13T23:08:24.698Z,4.10
2023-02-13T23:11:14.282Z,4.10
2023-02-13T23:13:52.427Z,4.10
2023-02-13T23:16:27.317Z,4.10
2023-02-13T23:19:03.981Z,4.10
2023-02-13T23:21:39.738Z,4.20
2023-02-13T23:24:14.271Z,4.20
2023-02-13T23:26:50.936Z,4.10
2023-02-13T23:29:26.078Z,4.10
2023-02-13T23:32:03.753Z,4.00
2023-02-13T23:34:42.488Z,3.90
2023-02-13T23:37:13.953Z,4.00
2023-02-13T23:39:42.012Z,4.00
2023-02-13T23:42:14.693Z,3.90
2023-02-13T23:44:47.989Z,3.80
2023-02-13T23:47:18.818Z,3.80
2023-02-13T23:49:51.196Z,3.80
2023-02-13T23:52:22.619Z,3.90
2023-02-13T23:54:53.821Z,3.80
2023-02-13T23:57:27.389Z,3.80
